sensor_id;sensor_type;location;lat;lon;timestamp;P1;durP1;ratioP1;P2;durP2;ratioP2
16199;SDS011;8207;52.494;4.654;2023-08-30T00:00:11;5.60;;;3.10;;
16199;SDS011;8207;52.494;4.654;2023-08-30T00:02:37;5.18;;;3.22;;
16199;SDS011;8207;52.494;4.654;2023-08-30T00:05:02;4.80;;;3.00;;
16199;SDS011;8207;52.494;4.654;2023-08-30T00:07:28;8.57;;;3.58;;
16199;SDS011;8207;52.494;4.654;2023-08-30T00:09:53;5.03;;;2.80;;
16199;SDS011;8207;52.494;4.654;2023-08-30T00:12:18;7.63;;;3.50;;
16199;SDS011;8207;52.494;4.654;2023-08-30T00:14:44;8.98;;;3.80;;
16199;SDS011;8207;52.494;4.654;2023-08-30T00:17:09;5.10;;;3.37;;
16199;SDS011;8207;52.494;4.654;2023-08-30T00:19:34;5.07;;;3.00;;
16199;SDS011;8207;52.494;4.654;2023-08-30T00:21:59;5.50;;;3.30;;
16199;SDS011;8207;52.494;4.654;2023-08-30T00:24:25;5.40;;;3.40;;
16199;SDS011;8207;52.494;4.654;2023-08-30T00:26:50;5.38;;;3.72;;
16199;SDS011;8207;52.494;4.654;2023-08-30T00:29:15;5.23;;;3.17;;
16199;SDS011;8207;52.494;4.654;2023-08-30T00:31:40;6.17;;;3.73;;
16199;SDS011;8207;52.494;4.654;2023-08-30T00:34:05;4.60;;;3.30;;
16199;SDS011;8207;52.494;4.654;2023-08-30T00:36:31;5.27;;;3.77;;
16199;SDS011;8207;52.494;4.654;2023-08-30T00:38:56;7.85;;;3.50;;
16199;SDS011;8207;52.494;4.654;2023-08-30T00:41:21;6.22;;;3.88;;
16199;SDS011;8207;52.494;4.654;2023-08-30T00:43:46;4.68;;;2.90;;
16199;SDS011;8207;52.494;4.654;2023-08-30T00:46:12;5.03;;;2.87;;
16199;SDS011;8207;52.494;4.654;2023-08-30T00:48:37;7.95;;;4.15;;
16199;SDS011;8207;52.494;4.654;2023-08-30T00:51:03;5.63;;;3.50;;
16199;SDS011;8207;52.494;4.654;2023-08-30T00:53:28;7.15;;;4.10;;
16199;SDS011;8207;52.494;4.654;2023-08-30T00:55:53;6.72;;;3.65;;
16199;SDS011;8207;52.494;4.654;2023-08-30T00:58:19;7.32;;;3.92;;
16199;SDS011;8207;52.494;4.654;2023-08-30T01:00:44;5.70;;;3.60;;
16199;SDS011;8207;52.494;4.654;2023-08-30T01:03:09;7.15;;;4.00;;
16199;SDS011;8207;52.494;4.654;2023-08-30T01:05:34;6.50;;;4.20;;
16199;SDS011;8207;52.494;4.654;2023-08-30T01:08:00;9.52;;;4.38;;
16199;SDS011;8207;52.494;4.654;2023-08-30T01:10:27;7.63;;;4.03;;
16199;SDS011;8207;52.494;4.654;2023-08-30T01:12:57;6.72;;;3.47;;
16199;SDS011;8207;52.494;4.654;2023-08-30T01:15:24;5.95;;;3.75;;
16199;SDS011;8207;52.494;4.654;2023-08-30T01:17:51;7.53;;;3.67;;
16199;SDS011;8207;52.494;4.654;2023-08-30T01:20:17;10.50;;;4.57;;
16199;SDS011;8207;52.494;4.654;2023-08-30T01:25:27;6.53;;;3.78;;
16199;SDS011;8207;52.494;4.654;2023-08-30T01:27:57;8.30;;;3.75;;
16199;SDS011;8207;52.494;4.654;2023-08-30T01:30:23;7.75;;;4.32;;
16199;SDS011;8207;52.494;4.654;2023-08-30T01:32:49;8.10;;;3.70;;
16199;SDS011;8207;52.494;4.654;2023-08-30T01:35:15;6.82;;;3.70;;
16199;SDS011;8207;52.494;4.654;2023-08-30T01:37:43;7.43;;;4.15;;
16199;SDS011;8207;52.494;4.654;2023-08-30T01:40:09;9.60;;;4.28;;
16199;SDS011;8207;52.494;4.654;2023-08-30T01:42:35;6.60;;;3.38;;
16199;SDS011;8207;52.494;4.654;2023-08-30T01:45:01;6.93;;;4.10;;
16199;SDS011;8207;52.494;4.654;2023-08-30T01:47:28;5.90;;;3.72;;
16199;SDS011;8207;52.494;4.654;2023-08-30T01:49:53;6.75;;;3.67;;
16199;SDS011;8207;52.494;4.654;2023-08-30T01:52:19;6.72;;;4.05;;
16199;SDS011;8207;52.494;4.654;2023-08-30T01:54:45;7.78;;;4.03;;
16199;SDS011;8207;52.494;4.654;2023-08-30T01:57:11;7.28;;;3.88;;
16199;SDS011;8207;52.494;4.654;2023-08-30T01:59:36;7.20;;;3.70;;
16199;SDS011;8207;52.494;4.654;2023-08-30T02:02:01;6.47;;;3.97;;
16199;SDS011;8207;52.494;4.654;2023-08-30T02:04:29;7.57;;;4.38;;
16199;SDS011;8207;52.494;4.654;2023-08-30T02:06:55;6.97;;;4.28;;
16199;SDS011;8207;52.494;4.654;2023-08-30T02:12:00;8.07;;;4.10;;
16199;SDS011;8207;52.494;4.654;2023-08-30T02:14:27;7.93;;;4.55;;
16199;SDS011;8207;52.494;4.654;2023-08-30T02:16:53;8.27;;;4.13;;
16199;SDS011;8207;52.494;4.654;2023-08-30T02:19:20;6.82;;;3.85;;
16199;SDS011;8207;52.494;4.654;2023-08-30T02:21:46;6.43;;;3.63;;
16199;SDS011;8207;52.494;4.654;2023-08-30T02:24:11;6.22;;;3.42;;
16199;SDS011;8207;52.494;4.654;2023-08-30T02:26:36;7.18;;;4.13;;
16199;SDS011;8207;52.494;4.654;2023-08-30T02:29:02;8.10;;;4.43;;
16199;SDS011;8207;52.494;4.654;2023-08-30T02:31:28;7.93;;;4.57;;
16199;SDS011;8207;52.494;4.654;2023-08-30T02:34:00;7.32;;;4.43;;
16199;SDS011;8207;52.494;4.654;2023-08-30T02:36:31;9.80;;;4.95;;
16199;SDS011;8207;52.494;4.654;2023-08-30T02:38:57;8.65;;;4.10;;
16199;SDS011;8207;52.494;4.654;2023-08-30T02:41:22;8.20;;;4.72;;
16199;SDS011;8207;52.494;4.654;2023-08-30T02:43:48;7.85;;;4.32;;
16199;SDS011;8207;52.494;4.654;2023-08-30T02:46:13;9.55;;;5.55;;
16199;SDS011;8207;52.494;4.654;2023-08-30T02:48:39;8.20;;;4.57;;
16199;SDS011;8207;52.494;4.654;2023-08-30T02:51:04;9.32;;;4.97;;
16199;SDS011;8207;52.494;4.654;2023-08-30T02:53:29;8.75;;;5.00;;
16199;SDS011;8207;52.494;4.654;2023-08-30T02:55:54;8.02;;;4.65;;
16199;SDS011;8207;52.494;4.654;2023-08-30T02:58:21;10.15;;;5.85;;
16199;SDS011;8207;52.494;4.654;2023-08-30T03:00:46;11.20;;;5.50;;
16199;SDS011;8207;52.494;4.654;2023-08-30T03:03:11;9.52;;;5.60;;
16199;SDS011;8207;52.494;4.654;2023-08-30T03:05:37;10.45;;;5.07;;
16199;SDS011;8207;52.494;4.654;2023-08-30T03:08:02;10.45;;;4.88;;
16199;SDS011;8207;52.494;4.654;2023-08-30T03:10:27;11.95;;;5.22;;
16199;SDS011;8207;52.494;4.654;2023-08-30T03:12:53;7.90;;;4.75;;
16199;SDS011;8207;52.494;4.654;2023-08-30T03:15:18;6.72;;;4.20;;
16199;SDS011;8207;52.494;4.654;2023-08-30T03:17:43;8.37;;;5.43;;
16199;SDS011;8207;52.494;4.654;2023-08-30T03:20:08;8.00;;;5.20;;
16199;SDS011;8207;52.494;4.654;2023-08-30T03:22:34;10.55;;;5.38;;
16199;SDS011;8207;52.494;4.654;2023-08-30T03:24:59;8.63;;;5.18;;
16199;SDS011;8207;52.494;4.654;2023-08-30T03:27:27;10.48;;;5.53;;
16199;SDS011;8207;52.494;4.654;2023-08-30T03:29:54;10.82;;;5.85;;
16199;SDS011;8207;52.494;4.654;2023-08-30T03:32:19;12.07;;;6.45;;
16199;SDS011;8207;52.494;4.654;2023-08-30T03:34:45;12.45;;;6.78;;
16199;SDS011;8207;52.494;4.654;2023-08-30T03:37:10;11.23;;;6.40;;
16199;SDS011;8207;52.494;4.654;2023-08-30T03:39:36;14.45;;;7.55;;
16199;SDS011;8207;52.494;4.654;2023-08-30T03:42:01;14.03;;;7.57;;
16199;SDS011;8207;52.494;4.654;2023-08-30T03:44:26;15.40;;;7.53;;
16199;SDS011;8207;52.494;4.654;2023-08-30T03:46:51;13.00;;;7.45;;
16199;SDS011;8207;52.494;4.654;2023-08-30T03:49:16;9.83;;;5.77;;
16199;SDS011;8207;52.494;4.654;2023-08-30T03:51:42;9.82;;;5.22;;
16199;SDS011;8207;52.494;4.654;2023-08-30T03:54:07;11.18;;;6.55;;
16199;SDS011;8207;52.494;4.654;2023-08-30T03:56:36;12.32;;;6.15;;
16199;SDS011;8207;52.494;4.654;2023-08-30T03:59:01;10.67;;;6.73;;
16199;SDS011;8207;52.494;4.654;2023-08-30T04:01:26;10.60;;;6.70;;
16199;SDS011;8207;52.494;4.654;2023-08-30T04:03:52;11.33;;;6.70;;
16199;SDS011;8207;52.494;4.654;2023-08-30T04:06:17;14.85;;;7.60;;
16199;SDS011;8207;52.494;4.654;2023-08-30T04:08:42;12.95;;;7.53;;
16199;SDS011;8207;52.494;4.654;2023-08-30T04:11:08;10.98;;;6.45;;
16199;SDS011;8207;52.494;4.654;2023-08-30T04:13:33;15.30;;;9.17;;
16199;SDS011;8207;52.494;4.654;2023-08-30T04:16:00;12.70;;;7.45;;
16199;SDS011;8207;52.494;4.654;2023-08-30T04:18:25;16.17;;;8.83;;
16199;SDS011;8207;52.494;4.654;2023-08-30T04:20:50;12.85;;;7.75;;
16199;SDS011;8207;52.494;4.654;2023-08-30T04:23:15;15.60;;;8.63;;
16199;SDS011;8207;52.494;4.654;2023-08-30T04:25:41;16.65;;;10.15;;
16199;SDS011;8207;52.494;4.654;2023-08-30T04:28:06;20.63;;;9.82;;
16199;SDS011;8207;52.494;4.654;2023-08-30T04:30:32;12.33;;;7.83;;
16199;SDS011;8207;52.494;4.654;2023-08-30T04:32:58;12.25;;;7.50;;
16199;SDS011;8207;52.494;4.654;2023-08-30T04:35:24;14.10;;;9.52;;
16199;SDS011;8207;52.494;4.654;2023-08-30T04:37:49;17.53;;;9.63;;
16199;SDS011;8207;52.494;4.654;2023-08-30T04:40:14;15.05;;;8.93;;
16199;SDS011;8207;52.494;4.654;2023-08-30T04:42:39;15.23;;;10.33;;
16199;SDS011;8207;52.494;4.654;2023-08-30T04:45:05;15.35;;;9.40;;
16199;SDS011;8207;52.494;4.654;2023-08-30T04:47:31;16.73;;;9.68;;
16199;SDS011;8207;52.494;4.654;2023-08-30T04:49:57;16.27;;;8.38;;
16199;SDS011;8207;52.494;4.654;2023-08-30T04:52:22;14.80;;;7.15;;
16199;SDS011;8207;52.494;4.654;2023-08-30T04:54:47;12.05;;;6.70;;
16199;SDS011;8207;52.494;4.654;2023-08-30T04:57:14;11.10;;;6.72;;
16199;SDS011;8207;52.494;4.654;2023-08-30T04:59:41;10.75;;;6.78;;
16199;SDS011;8207;52.494;4.654;2023-08-30T05:02:06;13.38;;;8.38;;
16199;SDS011;8207;52.494;4.654;2023-08-30T05:04:31;12.85;;;8.50;;
16199;SDS011;8207;52.494;4.654;2023-08-30T05:06:57;13.02;;;8.77;;
16199;SDS011;8207;52.494;4.654;2023-08-30T05:09:22;16.90;;;9.40;;
16199;SDS011;8207;52.494;4.654;2023-08-30T05:11:50;20.38;;;10.32;;
16199;SDS011;8207;52.494;4.654;2023-08-30T05:14:15;17.95;;;9.63;;
16199;SDS011;8207;52.494;4.654;2023-08-30T05:16:40;16.85;;;9.75;;
16199;SDS011;8207;52.494;4.654;2023-08-30T05:19:05;16.52;;;9.02;;
16199;SDS011;8207;52.494;4.654;2023-08-30T05:21:31;15.13;;;8.93;;
16199;SDS011;8207;52.494;4.654;2023-08-30T05:23:56;14.90;;;9.33;;
16199;SDS011;8207;52.494;4.654;2023-08-30T05:26:21;16.80;;;9.27;;
16199;SDS011;8207;52.494;4.654;2023-08-30T05:28:46;15.13;;;8.52;;
16199;SDS011;8207;52.494;4.654;2023-08-30T05:31:12;12.50;;;7.77;;
16199;SDS011;8207;52.494;4.654;2023-08-30T05:33:37;13.00;;;7.10;;
16199;SDS011;8207;52.494;4.654;2023-08-30T05:36:02;13.93;;;7.20;;
16199;SDS011;8207;52.494;4.654;2023-08-30T05:38:28;12.43;;;7.20;;
16199;SDS011;8207;52.494;4.654;2023-08-30T05:40:53;13.80;;;7.78;;
16199;SDS011;8207;52.494;4.654;2023-08-30T05:43:18;13.75;;;7.45;;
16199;SDS011;8207;52.494;4.654;2023-08-30T05:45:43;13.90;;;7.88;;
16199;SDS011;8207;52.494;4.654;2023-08-30T05:48:09;12.05;;;7.03;;
16199;SDS011;8207;52.494;4.654;2023-08-30T05:50:34;13.43;;;6.47;;
16199;SDS011;8207;52.494;4.654;2023-08-30T05:52:59;11.82;;;7.05;;
16199;SDS011;8207;52.494;4.654;2023-08-30T05:55:24;14.25;;;7.72;;
16199;SDS011;8207;52.494;4.654;2023-08-30T05:57:50;11.07;;;6.57;;
16199;SDS011;8207;52.494;4.654;2023-08-30T06:00:15;14.47;;;6.80;;
16199;SDS011;8207;52.494;4.654;2023-08-30T06:02:59;12.35;;;7.63;;
16199;SDS011;8207;52.494;4.654;2023-08-30T06:05:31;11.65;;;6.88;;
16199;SDS011;8207;52.494;4.654;2023-08-30T06:07:56;12.98;;;7.85;;
16199;SDS011;8207;52.494;4.654;2023-08-30T06:10:24;15.73;;;7.90;;
16199;SDS011;8207;52.494;4.654;2023-08-30T06:12:52;13.88;;;7.28;;
16199;SDS011;8207;52.494;4.654;2023-08-30T06:15:19;14.80;;;7.82;;
16199;SDS011;8207;52.494;4.654;2023-08-30T06:17:45;10.60;;;6.35;;
16199;SDS011;8207;52.494;4.654;2023-08-30T06:20:11;11.98;;;6.78;;
16199;SDS011;8207;52.494;4.654;2023-08-30T06:22:39;13.13;;;7.75;;
16199;SDS011;8207;52.494;4.654;2023-08-30T06:25:09;13.05;;;7.20;;
16199;SDS011;8207;52.494;4.654;2023-08-30T06:27:43;14.52;;;8.45;;
16199;SDS011;8207;52.494;4.654;2023-08-30T06:30:30;15.60;;;9.38;;
16199;SDS011;8207;52.494;4.654;2023-08-30T06:32:55;17.90;;;10.02;;
16199;SDS011;8207;52.494;4.654;2023-08-30T06:35:24;14.02;;;9.00;;
16199;SDS011;8207;52.494;4.654;2023-08-30T06:37:49;17.25;;;9.93;;
16199;SDS011;8207;52.494;4.654;2023-08-30T06:43:05;19.05;;;10.63;;
16199;SDS011;8207;52.494;4.654;2023-08-30T06:45:30;15.65;;;9.85;;
16199;SDS011;8207;52.494;4.654;2023-08-30T06:48:03;17.98;;;10.93;;
16199;SDS011;8207;52.494;4.654;2023-08-30T06:50:28;21.00;;;11.38;;
16199;SDS011;8207;52.494;4.654;2023-08-30T06:52:56;19.45;;;11.52;;
16199;SDS011;8207;52.494;4.654;2023-08-30T06:55:21;16.05;;;9.57;;
16199;SDS011;8207;52.494;4.654;2023-08-30T06:57:56;16.30;;;9.55;;
16199;SDS011;8207;52.494;4.654;2023-08-30T07:00:21;20.45;;;12.13;;
16199;SDS011;8207;52.494;4.654;2023-08-30T07:02:49;18.27;;;10.90;;
16199;SDS011;8207;52.494;4.654;2023-08-30T07:05:15;18.70;;;10.82;;
16199;SDS011;8207;52.494;4.654;2023-08-30T07:07:40;21.38;;;11.05;;
16199;SDS011;8207;52.494;4.654;2023-08-30T07:10:13;16.33;;;9.88;;
16199;SDS011;8207;52.494;4.654;2023-08-30T07:12:41;21.13;;;11.57;;
16199;SDS011;8207;52.494;4.654;2023-08-30T07:15:19;20.45;;;11.32;;
16199;SDS011;8207;52.494;4.654;2023-08-30T07:17:44;18.35;;;10.73;;
16199;SDS011;8207;52.494;4.654;2023-08-30T07:20:12;18.15;;;10.85;;
16199;SDS011;8207;52.494;4.654;2023-08-30T07:22:40;15.18;;;9.27;;
16199;SDS011;8207;52.494;4.654;2023-08-30T07:25:06;16.80;;;9.63;;
16199;SDS011;8207;52.494;4.654;2023-08-30T07:27:34;17.65;;;11.63;;
16199;SDS011;8207;52.494;4.654;2023-08-30T07:30:07;17.75;;;11.15;;
16199;SDS011;8207;52.494;4.654;2023-08-30T07:32:37;16.05;;;10.20;;
16199;SDS011;8207;52.494;4.654;2023-08-30T07:35:07;16.15;;;10.75;;
16199;SDS011;8207;52.494;4.654;2023-08-30T07:37:35;17.13;;;10.30;;
16199;SDS011;8207;52.494;4.654;2023-08-30T07:40:18;13.10;;;8.50;;
16199;SDS011;8207;52.494;4.654;2023-08-30T07:42:54;15.80;;;8.63;;
16199;SDS011;8207;52.494;4.654;2023-08-30T07:45:19;15.18;;;9.35;;
16199;SDS011;8207;52.494;4.654;2023-08-30T07:47:47;14.52;;;9.07;;
16199;SDS011;8207;52.494;4.654;2023-08-30T07:50:12;16.58;;;10.05;;
16199;SDS011;8207;52.494;4.654;2023-08-30T07:52:37;13.32;;;9.05;;
16199;SDS011;8207;52.494;4.654;2023-08-30T07:55:06;13.30;;;8.25;;
16199;SDS011;8207;52.494;4.654;2023-08-30T07:57:33;12.80;;;8.30;;
16199;SDS011;8207;52.494;4.654;2023-08-30T08:00:01;11.55;;;7.82;;
16199;SDS011;8207;52.494;4.654;2023-08-30T08:02:31;11.70;;;7.80;;
16199;SDS011;8207;52.494;4.654;2023-08-30T08:04:59;12.38;;;8.60;;
16199;SDS011;8207;52.494;4.654;2023-08-30T08:07:26;10.48;;;7.22;;
16199;SDS011;8207;52.494;4.654;2023-08-30T08:09:55;10.90;;;6.75;;
16199;SDS011;8207;52.494;4.654;2023-08-30T08:12:21;12.75;;;7.97;;
16199;SDS011;8207;52.494;4.654;2023-08-30T08:20:29;11.88;;;7.13;;
16199;SDS011;8207;52.494;4.654;2023-08-30T08:22:54;12.68;;;7.60;;
16199;SDS011;8207;52.494;4.654;2023-08-30T08:25:20;11.63;;;6.57;;
16199;SDS011;8207;52.494;4.654;2023-08-30T08:27:48;10.60;;;6.70;;
16199;SDS011;8207;52.494;4.654;2023-08-30T08:30:17;8.18;;;5.68;;
16199;SDS011;8207;52.494;4.654;2023-08-30T08:32:45;8.45;;;6.03;;
16199;SDS011;8207;52.494;4.654;2023-08-30T08:35:12;7.70;;;5.22;;
16199;SDS011;8207;52.494;4.654;2023-08-30T08:37:40;11.88;;;7.65;;
16199;SDS011;8207;52.494;4.654;2023-08-30T08:40:11;10.30;;;6.93;;
16199;SDS011;8207;52.494;4.654;2023-08-30T08:42:39;10.70;;;7.97;;
16199;SDS011;8207;52.494;4.654;2023-08-30T08:45:04;10.50;;;7.22;;
16199;SDS011;8207;52.494;4.654;2023-08-30T08:47:30;9.88;;;7.50;;
16199;SDS011;8207;52.494;4.654;2023-08-30T08:49:56;7.70;;;5.82;;
16199;SDS011;8207;52.494;4.654;2023-08-30T08:52:21;8.05;;;3.80;;
16199;SDS011;8207;52.494;4.654;2023-08-30T08:54:47;6.65;;;3.15;;
16199;SDS011;8207;52.494;4.654;2023-08-30T08:57:13;4.97;;;2.25;;
16199;SDS011;8207;52.494;4.654;2023-08-30T08:59:38;5.43;;;2.00;;
16199;SDS011;8207;52.494;4.654;2023-08-30T09:02:04;3.63;;;1.70;;
16199;SDS011;8207;52.494;4.654;2023-08-30T09:04:32;5.15;;;1.50;;
16199;SDS011;8207;52.494;4.654;2023-08-30T09:07:00;2.35;;;1.10;;
16199;SDS011;8207;52.494;4.654;2023-08-30T09:09:26;7.38;;;1.23;;
16199;SDS011;8207;52.494;4.654;2023-08-30T09:11:52;3.97;;;1.30;;
16199;SDS011;8207;52.494;4.654;2023-08-30T09:14:17;4.33;;;1.40;;
16199;SDS011;8207;52.494;4.654;2023-08-30T09:16:42;2.97;;;1.25;;
16199;SDS011;8207;52.494;4.654;2023-08-30T09:19:08;3.08;;;1.50;;
16199;SDS011;8207;52.494;4.654;2023-08-30T09:21:35;4.72;;;1.50;;
16199;SDS011;8207;52.494;4.654;2023-08-30T09:24:04;4.70;;;1.60;;
16199;SDS011;8207;52.494;4.654;2023-08-30T09:26:30;4.28;;;1.52;;
16199;SDS011;8207;52.494;4.654;2023-08-30T09:29:00;4.47;;;1.42;;
16199;SDS011;8207;52.494;4.654;2023-08-30T09:31:32;4.57;;;1.90;;
16199;SDS011;8207;52.494;4.654;2023-08-30T09:33:57;6.28;;;2.00;;
16199;SDS011;8207;52.494;4.654;2023-08-30T09:36:23;8.18;;;2.22;;
16199;SDS011;8207;52.494;4.654;2023-08-30T09:38:49;5.70;;;2.30;;
16199;SDS011;8207;52.494;4.654;2023-08-30T09:41:14;5.07;;;1.92;;
16199;SDS011;8207;52.494;4.654;2023-08-30T09:43:44;6.20;;;2.30;;
16199;SDS011;8207;52.494;4.654;2023-08-30T09:46:09;5.13;;;1.95;;
16199;SDS011;8207;52.494;4.654;2023-08-30T09:48:34;3.20;;;1.83;;
16199;SDS011;8207;52.494;4.654;2023-08-30T09:51:05;5.20;;;1.90;;
16199;SDS011;8207;52.494;4.654;2023-08-30T09:53:36;8.30;;;2.10;;
16199;SDS011;8207;52.494;4.654;2023-08-30T09:56:05;9.05;;;2.22;;
16199;SDS011;8207;52.494;4.654;2023-08-30T09:58:33;8.27;;;1.85;;
16199;SDS011;8207;52.494;4.654;2023-08-30T10:00:58;6.95;;;1.60;;
16199;SDS011;8207;52.494;4.654;2023-08-30T10:03:27;5.65;;;1.75;;
16199;SDS011;8207;52.494;4.654;2023-08-30T10:05:52;6.53;;;2.22;;
16199;SDS011;8207;52.494;4.654;2023-08-30T10:08:21;6.22;;;1.63;;
16199;SDS011;8207;52.494;4.654;2023-08-30T10:10:51;8.35;;;1.80;;
16199;SDS011;8207;52.494;4.654;2023-08-30T10:13:16;7.57;;;1.88;;
16199;SDS011;8207;52.494;4.654;2023-08-30T10:15:45;8.35;;;2.13;;
16199;SDS011;8207;52.494;4.654;2023-08-30T10:18:12;7.00;;;1.60;;
16199;SDS011;8207;52.494;4.654;2023-08-30T10:20:40;10.13;;;1.70;;
16199;SDS011;8207;52.494;4.654;2023-08-30T10:23:07;8.38;;;2.05;;
16199;SDS011;8207;52.494;4.654;2023-08-30T10:25:36;8.25;;;1.98;;
16199;SDS011;8207;52.494;4.654;2023-08-30T10:28:04;7.45;;;1.85;;
16199;SDS011;8207;52.494;4.654;2023-08-30T10:30:29;8.52;;;1.98;;
16199;SDS011;8207;52.494;4.654;2023-08-30T10:32:54;6.30;;;1.60;;
16199;SDS011;8207;52.494;4.654;2023-08-30T10:35:20;8.68;;;1.67;;
16199;SDS011;8207;52.494;4.654;2023-08-30T10:37:55;8.67;;;1.60;;
16199;SDS011;8207;52.494;4.654;2023-08-30T10:40:21;7.70;;;1.50;;
16199;SDS011;8207;52.494;4.654;2023-08-30T10:42:47;7.95;;;1.70;;
16199;SDS011;8207;52.494;4.654;2023-08-30T10:45:12;5.80;;;1.60;;
16199;SDS011;8207;52.494;4.654;2023-08-30T10:47:38;6.88;;;1.52;;
16199;SDS011;8207;52.494;4.654;2023-08-30T10:50:06;9.50;;;1.60;;
16199;SDS011;8207;52.494;4.654;2023-08-30T10:52:32;7.20;;;1.73;;
16199;SDS011;8207;52.494;4.654;2023-08-30T10:55:10;5.75;;;1.90;;
16199;SDS011;8207;52.494;4.654;2023-08-30T10:57:35;5.72;;;1.55;;
16199;SDS011;8207;52.494;4.654;2023-08-30T11:02:29;5.05;;;1.48;;
16199;SDS011;8207;52.494;4.654;2023-08-30T11:04:55;4.93;;;1.52;;
16199;SDS011;8207;52.494;4.654;2023-08-30T11:07:20;4.97;;;1.27;;
16199;SDS011;8207;52.494;4.654;2023-08-30T11:09:46;8.18;;;1.60;;
16199;SDS011;8207;52.494;4.654;2023-08-30T11:12:12;7.13;;;1.67;;
16199;SDS011;8207;52.494;4.654;2023-08-30T11:14:37;14.17;;;2.00;;
16199;SDS011;8207;52.494;4.654;2023-08-30T11:17:05;8.48;;;1.70;;
16199;SDS011;8207;52.494;4.654;2023-08-30T11:19:34;7.55;;;1.60;;
16199;SDS011;8207;52.494;4.654;2023-08-30T11:21:59;6.10;;;1.30;;
16199;SDS011;8207;52.494;4.654;2023-08-30T11:24:27;10.85;;;1.70;;
16199;SDS011;8207;52.494;4.654;2023-08-30T11:26:53;9.02;;;1.70;;
16199;SDS011;8207;52.494;4.654;2023-08-30T11:29:19;4.65;;;1.42;;
16199;SDS011;8207;52.494;4.654;2023-08-30T11:31:44;5.00;;;1.37;;
16199;SDS011;8207;52.494;4.654;2023-08-30T11:34:10;7.00;;;1.30;;
16199;SDS011;8207;52.494;4.654;2023-08-30T11:36:35;7.13;;;1.30;;
16199;SDS011;8207;52.494;4.654;2023-08-30T11:39:02;6.20;;;1.05;;
16199;SDS011;8207;52.494;4.654;2023-08-30T11:41:27;7.55;;;1.20;;
16199;SDS011;8207;52.494;4.654;2023-08-30T11:43:53;4.90;;;1.10;;
16199;SDS011;8207;52.494;4.654;2023-08-30T11:46:18;5.40;;;0.93;;
16199;SDS011;8207;52.494;4.654;2023-08-30T11:48:44;5.43;;;0.90;;
16199;SDS011;8207;52.494;4.654;2023-08-30T11:51:10;6.50;;;0.98;;
16199;SDS011;8207;52.494;4.654;2023-08-30T11:53:38;4.57;;;0.80;;
16199;SDS011;8207;52.494;4.654;2023-08-30T11:56:07;3.25;;;1.00;;
16199;SDS011;8207;52.494;4.654;2023-08-30T11:58:35;3.95;;;1.08;;
16199;SDS011;8207;52.494;4.654;2023-08-30T12:01:02;4.85;;;0.80;;
16199;SDS011;8207;52.494;4.654;2023-08-30T12:03:30;5.55;;;1.25;;
16199;SDS011;8207;52.494;4.654;2023-08-30T12:05:56;5.93;;;0.93;;
16199;SDS011;8207;52.494;4.654;2023-08-30T12:08:25;4.43;;;0.98;;
16199;SDS011;8207;52.494;4.654;2023-08-30T12:10:51;5.57;;;0.95;;
16199;SDS011;8207;52.494;4.654;2023-08-30T12:13:29;5.40;;;0.90;;
16199;SDS011;8207;52.494;4.654;2023-08-30T12:15:57;4.85;;;0.80;;
16199;SDS011;8207;52.494;4.654;2023-08-30T12:20:55;6.50;;;1.20;;
16199;SDS011;8207;52.494;4.654;2023-08-30T12:23:28;3.67;;;0.88;;
16199;SDS011;8207;52.494;4.654;2023-08-30T12:26:00;5.00;;;0.98;;
16199;SDS011;8207;52.494;4.654;2023-08-30T12:28:26;2.20;;;0.85;;
16199;SDS011;8207;52.494;4.654;2023-08-30T12:30:59;4.47;;;1.00;;
16199;SDS011;8207;52.494;4.654;2023-08-30T12:33:25;6.95;;;1.25;;
16199;SDS011;8207;52.494;4.654;2023-08-30T12:35:53;5.70;;;1.10;;
16199;SDS011;8207;52.494;4.654;2023-08-30T12:38:23;7.63;;;1.35;;
16199;SDS011;8207;52.494;4.654;2023-08-30T12:40:50;15.07;;;1.98;;
16199;SDS011;8207;52.494;4.654;2023-08-30T12:43:16;10.48;;;1.88;;
16199;SDS011;8207;52.494;4.654;2023-08-30T12:45:42;10.80;;;1.70;;
16199;SDS011;8207;52.494;4.654;2023-08-30T12:48:08;12.55;;;1.88;;
16199;SDS011;8207;52.494;4.654;2023-08-30T12:50:33;11.77;;;1.80;;
16199;SDS011;8207;52.494;4.654;2023-08-30T12:52:59;4.65;;;1.30;;
16199;SDS011;8207;52.494;4.654;2023-08-30T12:55:24;4.37;;;1.30;;
16199;SDS011;8207;52.494;4.654;2023-08-30T12:57:49;4.72;;;1.08;;
16199;SDS011;8207;52.494;4.654;2023-08-30T13:00:14;6.80;;;1.23;;
16199;SDS011;8207;52.494;4.654;2023-08-30T13:02:40;6.70;;;1.35;;
16199;SDS011;8207;52.494;4.654;2023-08-30T13:05:05;6.60;;;1.42;;
16199;SDS011;8207;52.494;4.654;2023-08-30T13:07:30;6.30;;;1.23;;
16199;SDS011;8207;52.494;4.654;2023-08-30T13:09:56;6.53;;;1.55;;
16199;SDS011;8207;52.494;4.654;2023-08-30T13:12:21;4.70;;;1.40;;
16199;SDS011;8207;52.494;4.654;2023-08-30T13:14:46;3.95;;;1.27;;
16199;SDS011;8207;52.494;4.654;2023-08-30T13:17:11;7.57;;;1.50;;
16199;SDS011;8207;52.494;4.654;2023-08-30T13:19:37;7.60;;;1.60;;
16199;SDS011;8207;52.494;4.654;2023-08-30T13:22:02;6.73;;;1.20;;
16199;SDS011;8207;52.494;4.654;2023-08-30T13:24:27;7.17;;;1.37;;
16199;SDS011;8207;52.494;4.654;2023-08-30T13:26:52;6.57;;;1.42;;
16199;SDS011;8207;52.494;4.654;2023-08-30T13:29:20;7.45;;;1.50;;
16199;SDS011;8207;52.494;4.654;2023-08-30T13:31:46;5.82;;;1.58;;
16199;SDS011;8207;52.494;4.654;2023-08-30T13:34:11;8.07;;;1.83;;
16199;SDS011;8207;52.494;4.654;2023-08-30T13:36:36;5.60;;;1.30;;
16199;SDS011;8207;52.494;4.654;2023-08-30T13:39:06;4.18;;;1.45;;
16199;SDS011;8207;52.494;4.654;2023-08-30T13:41:33;6.13;;;1.42;;
16199;SDS011;8207;52.494;4.654;2023-08-30T13:44:00;7.05;;;1.42;;
16199;SDS011;8207;52.494;4.654;2023-08-30T13:46:26;6.22;;;1.50;;
16199;SDS011;8207;52.494;4.654;2023-08-30T13:48:51;9.03;;;1.53;;
16199;SDS011;8207;52.494;4.654;2023-08-30T13:51:21;5.22;;;1.15;;
16199;SDS011;8207;52.494;4.654;2023-08-30T13:53:46;4.93;;;0.98;;
16199;SDS011;8207;52.494;4.654;2023-08-30T13:56:12;5.00;;;1.00;;
16199;SDS011;8207;52.494;4.654;2023-08-30T13:58:37;4.40;;;0.83;;
16199;SDS011;8207;52.494;4.654;2023-08-30T14:01:03;4.40;;;0.85;;
16199;SDS011;8207;52.494;4.654;2023-08-30T14:03:28;5.72;;;1.00;;
16199;SDS011;8207;52.494;4.654;2023-08-30T14:05:54;2.80;;;1.00;;
16199;SDS011;8207;52.494;4.654;2023-08-30T14:08:19;4.35;;;1.02;;
16199;SDS011;8207;52.494;4.654;2023-08-30T14:10:44;4.00;;;0.63;;
16199;SDS011;8207;52.494;4.654;2023-08-30T14:13:09;4.27;;;0.83;;
16199;SDS011;8207;52.494;4.654;2023-08-30T14:15:34;4.97;;;0.77;;
16199;SDS011;8207;52.494;4.654;2023-08-30T14:18:00;3.93;;;0.80;;
16199;SDS011;8207;52.494;4.654;2023-08-30T14:20:25;2.90;;;0.77;;
16199;SDS011;8207;52.494;4.654;2023-08-30T14:22:50;4.20;;;0.80;;
16199;SDS011;8207;52.494;4.654;2023-08-30T14:25:15;3.42;;;0.85;;
16199;SDS011;8207;52.494;4.654;2023-08-30T14:27:41;3.33;;;0.80;;
16199;SDS011;8207;52.494;4.654;2023-08-30T14:30:06;5.63;;;0.68;;
16199;SDS011;8207;52.494;4.654;2023-08-30T14:32:32;2.90;;;0.80;;
16199;SDS011;8207;52.494;4.654;2023-08-30T14:34:57;3.45;;;0.80;;
16199;SDS011;8207;52.494;4.654;2023-08-30T14:37:22;4.97;;;0.85;;
16199;SDS011;8207;52.494;4.654;2023-08-30T14:39:47;5.03;;;0.90;;
16199;SDS011;8207;52.494;4.654;2023-08-30T14:42:13;4.13;;;0.73;;
16199;SDS011;8207;52.494;4.654;2023-08-30T14:44:38;4.90;;;0.80;;
16199;SDS011;8207;52.494;4.654;2023-08-30T14:47:03;4.47;;;0.87;;
16199;SDS011;8207;52.494;4.654;2023-08-30T14:49:29;5.87;;;1.10;;
16199;SDS011;8207;52.494;4.654;2023-08-30T14:51:55;5.63;;;1.10;;
16199;SDS011;8207;52.494;4.654;2023-08-30T14:54:20;5.88;;;1.50;;
16199;SDS011;8207;52.494;4.654;2023-08-30T14:56:45;5.70;;;0.90;;
16199;SDS011;8207;52.494;4.654;2023-08-30T14:59:10;5.43;;;0.90;;
16199;SDS011;8207;52.494;4.654;2023-08-30T15:01:36;6.97;;;1.08;;
16199;SDS011;8207;52.494;4.654;2023-08-30T15:04:01;3.75;;;1.13;;
16199;SDS011;8207;52.494;4.654;2023-08-30T15:06:26;4.20;;;0.90;;
16199;SDS011;8207;52.494;4.654;2023-08-30T15:08:51;5.75;;;1.00;;